Time;durP1;ratioP1;P1;durP2;ratioP2;P2;SDS_P1;SDS_P2;PMS_P1;PMS_P2;Temp;Humidity;BMP_temperature;BMP_pressure;BME280_temperature;BME280_humidity;BME280_pressure;Samples;Min_cycle;Max_cycle;Signal;HPM_P1;HPM_P2
2022/08/23 00:00:14;;;;;;;;;;;27.50;53.20;;;;;;861454;23;802;-82
2022/08/23 00:00:34;;;;;;;;;;;27.50;54.20;;;;;;861221;23;1907;-82
2022/08/23 00:00:55;;;;;;;;;;;27.50;53.20;;;;;;861284;23;1200;-84
2022/08/23 00:01:17;;;;;;;;;;;27.50;53.20;;;;;;861383;23;960;-83
2022/08/23 00:01:39;;;;;;;;;;;27.50;53.10;;;;;;861375;23;829;-82
2022/08/23 00:02:01;;;;;;;;;;;27.50;53.20;;;;;;861462;23;869;-83
2022/08/23 00:02:22;;;;;;;;;;;27.50;53.10;;;;;;861392;23;793;-85
2022/08/23 00:02:42;;;;;;;;;;;27.50;53.00;;;;;;861334;23;882;-86
2022/08/23 00:03:03;;;;;;;;;;;27.50;53.10;;;;;;861439;23;850;-83
2022/08/23 00:03:23;;;;;;;;;;;27.50;53.10;;;;;;861434;23;765;-84
2022/08/23 00:03:44;;;;;;;;;;;27.50;53.00;;;;;;861423;23;770;-84
2022/08/23 00:04:05;;;;;;;;;;;;;;;;;;861179;23;1276;-85
2022/08/23 00:04:28;;;;;;;;;;;27.50;53.00;;;;;;861377;23;877;-83
2022/08/23 00:04:49;;;;;;;;;;;27.50;53.00;;;;;;861236;23;1455;-82
2022/08/23 00:05:10;;;;;;;;;;;27.50;52.90;;;;;;861301;23;830;-83
2022/08/23 00:05:31;;;;;;;;;;;27.50;53.00;;;;;;861176;23;1416;-83
2022/08/23 00:05:51;;;;;;;;;;;27.50;52.90;;;;;;861668;23;789;-83
2022/08/23 00:06:12;;;;;;;;;;;27.50;53.00;;;;;;861504;23;885;-86
2022/08/23 00:06:33;;;;;;;;;;;27.50;53.00;;;;;;861134;23;992;-85
2022/08/23 00:06:54;;;;;;;;;;;27.50;53.00;;;;;;861445;23;817;-83
2022/08/23 00:07:14;;;;;;;;;;;27.50;53.00;;;;;;861268;23;838;-83
2022/08/23 00:07:36;;;;;;;;;;;27.50;53.00;;;;;;861265;23;873;-85
2022/08/23 00:07:57;;;;;;;;;;;27.50;53.00;;;;;;861879;23;861;-84
2022/08/23 00:08:17;;;;;;;;;;;27.50;53.00;;;;;;861413;23;809;-86
2022/08/23 00:08:38;;;;;;;;;;;27.50;53.00;;;;;;861298;23;820;-83
2022/08/23 00:08:59;;;;;;;;;;;27.50;53.00;;;;;;856743;23;856;-87
2022/08/23 00:09:20;;;;;;;;;;;27.50;52.90;;;;;;856990;23;774;-86
2022/08/23 00:09:41;;;;;;;;;;;27.50;52.90;;;;;;856766;23;897;-84
2022/08/23 00:10:03;;;;;;;;;;;27.50;52.90;;;;;;856964;23;842;-84
2022/08/23 00:10:24;;;;;;;;;;;27.50;52.90;;;;;;857056;23;826;-83
2022/08/23 00:10:44;;;;;;;;;;;27.50;53.00;;;;;;856982;23;837;-83
2022/08/23 00:11:05;;;;;;;;;;;27.50;52.90;;;;;;853617;23;846;-83
2022/08/23 00:11:29;;;;;;;;;;;27.50;53.00;;;;;;856844;23;865;-85
2022/08/23 00:11:51;;;;;;;;;;;27.50;53.00;;;;;;856935;23;758;-85
2022/08/23 00:12:14;;;;;;;;;;;27.50;52.90;;;;;;857324;23;833;-84
2022/08/23 00:12:34;;;;;;;;;;;27.50;53.00;;;;;;857174;23;806;-83
2022/08/23 00:12:55;;;;;;;;;;;27.50;52.80;;;;;;859049;23;822;-82
2022/08/23 00:13:16;;;;;;;;;;;27.50;52.80;;;;;;861417;23;758;-84
2022/08/23 00:13:36;;;;;;;;;;;27.50;52.90;;;;;;861282;23;936;-85
2022/08/23 00:13:58;;;;;;;;;;;27.50;52.90;;;;;;861328;23;861;-85
2022/08/23 00:14:24;;;;;;;;;;;27.50;53.00;;;;;;861548;23;781;-83
2022/08/23 00:14:47;;;;;;;;;;;27.50;53.20;;;;;;861321;23;765;-83
2022/08/23 00:15:08;;;;;;;;;;;27.50;53.20;;;;;;861223;23;829;-83
2022/08/23 00:15:29;;;;;;;;;;;27.50;52.90;;;;;;861232;23;924;-84
2022/08/23 00:15:49;;;;;;;;;;;27.50;53.00;;;;;;856823;23;1227;-85
2022/08/23 00:16:10;;;;;;;;;;;27.50;53.20;;;;;;856944;23;892;-83
2022/08/23 00:16:31;;;;;;;;;;;27.50;53.00;;;;;;857032;23;865;-85
2022/08/23 00:16:52;;;;;;;;;;;27.50;53.00;;;;;;856976;23;821;-85
2022/08/23 00:17:13;;;;;;;;;;;27.50;53.10;;;;;;857009;23;853;-85
2022/08/23 00:17:34;;;;;;;;;;;27.50;53.10;;;;;;857585;23;813;-83
2022/08/23 00:17:55;;;;;;;;;;;27.50;53.00;;;;;;861316;23;801;-83
2022/08/23 00:18:17;;;;;;;;;;;27.50;52.80;;;;;;861352;23;795;-85
2022/08/23 00:18:37;;;;;;;;;;;27.50;52.90;;;;;;861728;23;814;-82
2022/08/23 00:18:58;;;;;;;;;;;27.50;53.00;;;;;;861423;23;825;-83
2022/08/23 00:19:18;;;;;;;;;;;27.50;53.00;;;;;;861790;23;805;-83
2022/08/23 00:19:40;;;;;;;;;;;27.50;52.80;;;;;;856913;23;845;-82
2022/08/23 00:20:03;;;;;;;;;;;27.50;53.20;;;;;;856899;23;894;-84
2022/08/23 00:20:23;;;;;;;;;;;27.50;52.80;;;;;;857003;23;1888;-83
2022/08/23 00:20:44;;;;;;;;;;;27.50;52.80;;;;;;856936;23;841;-82
2022/08/23 00:21:04;;;;;;;;;;;27.50;52.70;;;;;;856850;23;1128;-82
2022/08/23 00:21:25;;;;;;;;;;;27.50;53.30;;;;;;858130;23;773;-83
2022/08/23 00:21:46;;;;;;;;;;;27.50;53.30;;;;;;861287;23;853;-83
2022/08/23 00:22:07;;;;;;;;;;;27.50;53.10;;;;;;861430;23;751;-84
2022/08/23 00:22:28;;;;;;;;;;;27.50;53.10;;;;;;861420;23;809;-84
2022/08/23 00:22:48;;;;;;;;;;;27.50;52.80;;;;;;861077;23;1218;-83
2022/08/23 00:23:09;;;;;;;;;;;27.50;52.80;;;;;;861441;23;710;-83
2022/08/23 00:23:30;;;;;;;;;;;27.50;52.90;;;;;;861277;23;817;-84
2022/08/23 00:23:51;;;;;;;;;;;27.40;52.90;;;;;;860701;23;1035;-84
2022/08/23 00:24:12;;;;;;;;;;;27.50;53.20;;;;;;861292;23;1345;-83
2022/08/23 00:24:33;;;;;;;;;;;27.50;53.10;;;;;;861352;23;1457;-85
2022/08/23 00:24:53;;;;;;;;;;;27.50;52.70;;;;;;861296;23;778;-83
2022/08/23 00:25:14;;;;;;;;;;;27.50;52.80;;;;;;861484;23;793;-84
2022/08/23 00:25:35;;;;;;;;;;;27.50;53.00;;;;;;861398;23;790;-83
2022/08/23 00:25:55;;;;;;;;;;;27.50;53.30;;;;;;861455;23;824;-85
2022/08/23 00:26:16;;;;;;;;;;;27.40;53.20;;;;;;855849;23;905;-85
2022/08/23 00:26:49;;;;;;;;;;;27.40;52.80;;;;;;856866;23;912;-84
2022/08/23 00:27:14;;;;;;;;;;;27.50;53.50;;;;;;856969;23;790;-86
2022/08/23 00:27:35;;;;;;;;;;;27.50;53.30;;;;;;857110;23;785;-80
2022/08/23 00:27:55;;;;;;;;;;;27.40;53.00;;;;;;852736;23;1319;-82
2022/08/23 00:28:16;;;;;;;;;;;27.40;52.90;;;;;;856891;23;804;-84
2022/08/23 00:28:37;;;;;;;;;;;27.40;53.00;;;;;;857044;23;880;-84
2022/08/23 00:28:57;;;;;;;;;;;27.50;53.30;;;;;;856988;23;817;-82
2022/08/23 00:29:20;;;;;;;;;;;27.40;53.10;;;;;;852754;23;1308;-83
2022/08/23 00:29:46;;;;;;;;;;;27.50;53.20;;;;;;853696;23;825;-82
2022/08/23 00:30:07;;;;;;;;;;;27.40;53.10;;;;;;852469;23;1309;-84
2022/08/23 00:30:30;;;;;;;;;;;27.50;53.10;;;;;;853465;23;937;-84
2022/08/23 00:30:51;;;;;;;;;;;27.40;53.00;;;;;;853829;23;1272;-85
2022/08/23 00:31:12;;;;;;;;;;;27.40;53.20;;;;;;856572;23;1280;-85
2022/08/23 00:31:33;;;;;;;;;;;27.40;53.20;;;;;;857841;23;845;-85
2022/08/23 00:31:54;;;;;;;;;;;27.30;53.20;;;;;;857932;23;833;-85
2022/08/23 00:32:23;;;;;;;;;;;27.40;53.10;;;;;;857469;23;790;-85
2022/08/23 00:32:44;;;;;;;;;;;27.40;53.10;;;;;;851921;23;1349;-87
2022/08/23 00:33:04;;;;;;;;;;;27.40;53.20;;;;;;853951;23;767;-86
2022/08/23 00:33:25;;;;;;;;;;;27.40;53.30;;;;;;853971;23;825;-85
2022/08/23 00:33:45;;;;;;;;;;;27.40;53.20;;;;;;853659;23;920;-83
2022/08/23 00:34:06;;;;;;;;;;;27.40;53.20;;;;;;853988;23;833;-85
2022/08/23 00:34:27;;;;;;;;;;;27.40;53.20;;;;;;854922;23;751;-86
2022/08/23 00:34:48;;;;;;;;;;;27.30;53.20;;;;;;862905;23;801;-88
2022/08/23 00:35:09;;;;;;;;;;;27.40;53.40;;;;;;862748;23;844;-84
2022/08/23 00:35:30;;;;;;;;;;;27.30;53.30;;;;;;862381;23;848;-84
2022/08/23 00:35:51;;;;;;;;;;;27.40;53.50;;;;;;861875;23;881;-86
2022/08/23 00:36:11;;;;;;;;;;;27.40;53.40;;;;;;861587;23;822;-87
2022/08/23 00:36:32;;;;;;;;;;;27.30;53.50;;;;;;861540;23;900;-87
2022/08/23 00:36:53;;;;;;;;;;;27.40;53.60;;;;;;861853;23;778;-86
2022/08/23 00:37:14;;;;;;;;;;;27.30;53.30;;;;;;861601;23;766;-85
2022/08/23 00:37:35;;;;;;;;;;;27.40;53.50;;;;;;861691;23;802;-86
2022/08/23 00:37:56;;;;;;;;;;;27.40;53.50;;;;;;861392;23;1481;-87
2022/08/23 00:38:17;;;;;;;;;;;27.30;53.50;;;;;;861457;23;917;-88
2022/08/23 00:38:37;;;;;;;;;;;27.40;53.60;;;;;;861650;23;805;-87
2022/08/23 00:38:58;;;;;;;;;;;27.30;53.60;;;;;;861656;23;841;-87
2022/08/23 00:39:19;;;;;;;;;;;27.30;53.60;;;;;;861762;23;829;-85
2022/08/23 00:39:40;;;;;;;;;;;27.30;53.60;;;;;;861378;23;1347;-87
2022/08/23 00:40:01;;;;;;;;;;;27.30;53.60;;;;;;861515;23;920;-86
2022/08/23 00:40:21;;;;;;;;;;;27.30;53.60;;;;;;861411;23;794;-86
2022/08/23 00:40:43;;;;;;;;;;;27.30;53.60;;;;;;856817;23;1894;-83
2022/08/23 00:41:03;;;;;;;;;;;27.30;53.70;;;;;;856990;23;940;-86
2022/08/23 00:41:24;;;;;;;;;;;27.30;53.70;;;;;;857367;23;807;-87
2022/08/23 00:41:46;;;;;;;;;;;27.30;53.70;;;;;;856077;23;910;-84
2022/08/23 00:47:53;;;;;;;;;;;27.30;53.80;;;;;;861425;23;647;-84
2022/08/23 00:48:14;;;;;;;;;;;27.30;53.80;;;;;;861430;23;774;-84
2022/08/23 00:48:36;;;;;;;;;;;27.30;54.70;;;;;;861211;22;1246;-84
2022/08/23 00:48:57;;;;;;;;;;;27.30;54.70;;;;;;861369;23;758;-82
2022/08/23 00:49:18;;;;;;;;;;;27.20;53.70;;;;;;861288;23;829;-84
2022/08/23 00:49:39;;;;;;;;;;;27.20;53.70;;;;;;861243;23;913;-85
2022/08/23 00:50:26;;;;;;;;;;;27.20;53.70;;;;;;861501;23;961;-84
2022/08/23 00:50:53;;;;;;;;;;;27.30;53.80;;;;;;857838;23;1298;-86
2022/08/23 00:51:14;;;;;;;;;;;27.20;53.60;;;;;;861092;23;932;-84
2022/08/23 00:51:40;;;;;;;;;;;27.20;53.60;;;;;;861213;23;782;-83
2022/08/23 00:52:01;;;;;;;;;;;27.20;53.70;;;;;;861318;23;912;-86
2022/08/23 00:52:27;;;;;;;;;;;27.20;53.70;;;;;;861305;23;806;-83
2022/08/23 00:53:02;;;;;;;;;;;27.20;53.70;;;;;;856230;23;863;-84
2022/08/23 00:53:25;;;;;;;;;;;27.30;53.80;;;;;;856882;23;834;-83
2022/08/23 00:53:48;;;;;;;;;;;27.20;53.70;;;;;;856727;23;1475;-83
2022/08/23 00:54:10;;;;;;;;;;;27.20;53.70;;;;;;857005;23;805;-85
2022/08/23 00:54:31;;;;;;;;;;;27.30;53.80;;;;;;857193;23;796;-86
2022/08/23 00:54:52;;;;;;;;;;;27.20;53.70;;;;;;856276;23;1507;-83
2022/08/23 00:55:13;;;;;;;;;;;27.20;53.70;;;;;;856844;23;888;-85
2022/08/23 00:55:34;;;;;;;;;;;27.20;53.70;;;;;;856844;23;769;-85
2022/08/23 00:55:56;;;;;;;;;;;27.20;53.70;;;;;;856984;23;916;-83
2022/08/23 00:56:18;;;;;;;;;;;27.20;53.70;;;;;;856961;23;900;-83
2022/08/23 00:56:39;;;;;;;;;;;27.20;53.70;;;;;;857996;23;920;-82
2022/08/23 00:57:01;;;;;;;;;;;27.20;53.70;;;;;;861205;23;889;-86
2022/08/23 00:57:22;;;;;;;;;;;;;;;;;;861273;23;833;-83
2022/08/23 00:57:44;;;;;;;;;;;27.30;53.80;;;;;;861278;23;1120;-84
2022/08/23 00:58:06;;;;;;;;;;;27.20;53.70;;;;;;861322;23;801;-83
2022/08/23 00:58:27;;;;;;;;;;;27.20;53.70;;;;;;861303;23;832;-83
2022/08/23 00:58:48;;;;;;;;;;;27.20;53.70;;;;;;861408;23;793;-82
2022/08/23 00:59:08;;;;;;;;;;;27.20;53.70;;;;;;861349;23;793;-81
2022/08/23 00:59:29;;;;;;;;;;;27.30;53.80;;;;;;861330;23;786;-83
2022/08/23 00:59:49;;;;;;;;;;;27.20;53.70;;;;;;861382;23;837;-82
2022/08/23 01:00:10;;;;;;;;;;;27.20;53.70;;;;;;861489;23;797;-82
2022/08/23 01:00:31;;;;;;;;;;;27.20;53.70;;;;;;861189;23;1896;-83
2022/08/23 01:00:54;;;;;;;;;;;27.20;53.70;;;;;;861431;23;839;-85
2022/08/23 01:01:15;;;;;;;;;;;27.20;53.70;;;;;;857385;23;1233;-85
2022/08/23 01:01:35;;;;;;;;;;;27.20;53.70;;;;;;857178;23;794;-84
2022/08/23 01:01:56;;;;;;;;;;;27.20;53.70;;;;;;857016;23;822;-86
2022/08/23 01:02:17;;;;;;;;;;;27.20;53.70;;;;;;857040;23;891;-86
2022/08/23 01:02:37;;;;;;;;;;;27.20;53.70;;;;;;857477;23;991;-83
2022/08/23 01:02:58;;;;;;;;;;;27.20;53.70;;;;;;857805;23;789;-86
2022/08/23 01:03:20;;;;;;;;;;;27.20;53.70;;;;;;861497;23;957;-84
2022/08/23 01:03:42;;;;;;;;;;;27.20;53.70;;;;;;861368;23;801;-85
2022/08/23 01:04:03;;;;;;;;;;;27.20;53.70;;;;;;861885;23;821;-84
2022/08/23 01:04:26;;;;;;;;;;;27.20;53.70;;;;;;861487;23;1035;-86
2022/08/23 01:04:57;;;;;;;;;;;27.20;53.70;;;;;;861469;23;861;-84
2022/08/23 01:05:18;;;;;;;;;;;27.20;53.70;;;;;;856914;23;1241;-85
2022/08/23 01:05:51;;;;;;;;;;;27.20;53.70;;;;;;856665;23;1055;-85
2022/08/23 01:06:12;;;;;;;;;;;;;;;;;;852728;23;1254;-86
2022/08/23 01:06:51;;;;;;;;;;;27.20;53.70;;;;;;852994;23;921;-86
2022/08/23 01:07:12;;;;;;;;;;;;;;;;;;855220;23;1378;-84
2022/08/23 01:07:33;;;;;;;;;;;27.20;53.70;;;;;;857018;23;805;-84
2022/08/23 01:07:56;;;;;;;;;;;27.20;53.70;;;;;;856980;23;833;-83
2022/08/23 01:08:18;;;;;;;;;;;27.20;53.70;;;;;;857120;23;786;-86
2022/08/23 01:08:40;;;;;;;;;;;27.20;53.70;;;;;;852569;23;1246;-85
2022/08/23 01:09:03;;;;;;;;;;;27.20;53.70;;;;;;854519;23;886;-84
2022/08/23 01:09:24;;;;;;;;;;;27.20;53.70;;;;;;856973;23;967;-84
2022/08/23 01:09:47;;;;;;;;;;;27.20;53.70;;;;;;856782;23;904;-84
2022/08/23 01:10:13;;;;;;;;;;;27.20;53.70;;;;;;856902;23;814;-84
2022/08/23 01:10:42;;;;;;;;;;;27.20;53.70;;;;;;860041;23;846;-85
2022/08/23 01:11:07;;;;;;;;;;;27.20;53.70;;;;;;861397;23;956;-84
2022/08/23 01:11:32;;;;;;;;;;;27.20;53.70;;;;;;861359;23;873;-83
2022/08/23 01:12:13;;;;;;;;;;;27.20;53.70;;;;;;861360;23;841;-85
2022/08/23 01:12:38;;;;;;;;;;;27.20;53.80;;;;;;856702;23;1097;-80
2022/08/23 01:12:59;;;;;;;;;;;;;;;;;;856756;23;1384;-83
2022/08/23 01:13:35;;;;;;;;;;;27.20;53.90;;;;;;857134;23;1210;-81
2022/08/23 01:13:57;;;;;;;;;;;27.20;53.70;;;;;;856959;23;809;-82
2022/08/23 01:14:21;;;;;;;;;;;27.30;53.80;;;;;;857418;23;813;-83
2022/08/23 01:14:42;;;;;;;;;;;;;;;;;;861395;23;813;-81
2022/08/23 01:15:05;;;;;;;;;;;27.20;53.70;;;;;;861411;23;805;-83
2022/08/23 01:15:30;;;;;;;;;;;27.30;53.80;;;;;;861384;23;849;-83
2022/08/23 01:15:53;;;;;;;;;;;27.30;53.80;;;;;;861343;23;861;-83
2022/08/23 01:16:20;;;;;;;;;;;27.30;53.80;;;;;;861323;23;833;-83
2022/08/23 01:17:13;;;;;;;;;;;27.30;53.80;;;;;;861306;23;873;-83
2022/08/23 01:17:37;;;;;;;;;;;27.30;53.80;;;;;;852551;23;889;-83
2022/08/23 01:18:03;;;;;;;;;;;27.30;53.80;;;;;;852559;23;866;-83
2022/08/23 01:18:25;;;;;;;;;;;27.30;53.70;;;;;;852648;23;881;-82
2022/08/23 01:18:46;;;;;;;;;;;27.30;53.70;;;;;;852645;23;1017;-84
2022/08/23 01:19:12;;;;;;;;;;;27.30;53.80;;;;;;852694;23;837;-82
2022/08/23 01:19:45;;;;;;;;;;;27.40;53.80;;;;;;852718;23;857;-82
2022/08/23 01:20:08;;;;;;;;;;;27.40;53.70;;;;;;848956;23;1326;-90
2022/08/23 01:20:32;;;;;;;;;;;27.30;53.60;;;;;;848589;23;1924;-88
2022/08/23 01:21:04;;;;;;;;;;;27.30;53.60;;;;;;848493;23;954;-84
2022/08/23 01:21:27;;;;;;;;;;;27.30;53.60;;;;;;848681;23;923;-81
2022/08/23 01:21:54;;;;;;;;;;;27.30;53.50;;;;;;848515;23;1412;-84
2022/08/23 01:22:26;;;;;;;;;;;27.40;53.70;;;;;;852478;23;1267;-86
2022/08/23 01:22:47;;;;;;;;;;;27.30;53.60;;;;;;852592;23;810;-87
2022/08/23 01:23:08;;;;;;;;;;;;;;;;;;852798;23;793;-87
2022/08/23 01:23:32;;;;;;;;;;;27.40;53.60;;;;;;852685;23;829;-85
2022/08/23 01:23:54;;;;;;;;;;;27.40;53.50;;;;;;852696;23;901;-86
2022/08/23 01:24:16;;;;;;;;;;;27.40;53.40;;;;;;852674;23;853;-85
2022/08/23 01:24:37;;;;;;;;;;;27.40;53.50;;;;;;852667;23;805;-83
2022/08/23 01:24:58;;;;;;;;;;;27.40;53.50;;;;;;852354;23;813;-84
2022/08/23 01:25:20;;;;;;;;;;;27.40;53.30;;;;;;852533;23;1345;-87
2022/08/23 01:25:41;;;;;;;;;;;27.40;53.30;;;;;;852692;23;765;-84
2022/08/23 01:26:02;;;;;;;;;;;;;;;;;;852645;23;836;-83
2022/08/23 01:26:23;;;;;;;;;;;27.30;53.30;;;;;;852788;23;789;-84
2022/08/23 01:26:46;;;;;;;;;;;27.40;53.30;;;;;;848117;23;834;-84
2022/08/23 01:27:09;;;;;;;;;;;27.40;53.30;;;;;;848473;23;862;-84
2022/08/23 01:27:30;;;;;;;;;;;27.40;53.30;;;;;;848621;23;876;-83
2022/08/23 01:27:52;;;;;;;;;;;27.40;53.20;;;;;;848429;23;1329;-85
2022/08/23 01:28:13;;;;;;;;;;;27.40;53.20;;;;;;847726;23;927;-84
2022/08/23 01:28:33;;;;;;;;;;;27.40;53.30;;;;;;850319;23;932;-85
2022/08/23 01:28:54;;;;;;;;;;;27.40;53.30;;;;;;848333;23;1444;-85
2022/08/23 01:29:16;;;;;;;;;;;;;;;;;;848646;23;841;-87
2022/08/23 01:29:36;;;;;;;;;;;27.40;53.20;;;;;;844380;23;1534;-85
2022/08/23 01:29:57;;;;;;;;;;;27.40;53.40;;;;;;844472;23;798;-84
2022/08/23 01:30:22;;;;;;;;;;;27.40;53.20;;;;;;844484;23;865;-84
2022/08/23 01:30:43;;;;;;;;;;;27.40;53.60;;;;;;846029;23;798;-85
2022/08/23 01:31:04;;;;;;;;;;;27.40;54.10;;;;;;843702;23;1375;-86
2022/08/23 01:31:25;;;;;;;;;;;27.40;54.70;;;;;;845951;23;822;-82
2022/08/23 01:31:46;;;;;;;;;;;27.40;54.70;;;;;;848568;23;814;-85
2022/08/23 01:32:09;;;;;;;;;;;27.40;54.80;;;;;;848589;23;893;-85
2022/08/23 01:32:31;;;;;;;;;;;27.40;55.60;;;;;;848578;23;785;-88
2022/08/23 01:32:52;;;;;;;;;;;;;;;;;;849700;23;758;-84
2022/08/23 01:33:13;;;;;;;;;;;;;;;;;;848169;23;758;-84
2022/08/23 01:33:35;;;;;;;;;;;27.50;55.50;;;;;;844483;23;1078;-83
2022/08/23 01:34:02;;;;;;;;;;;27.40;55.20;;;;;;844538;23;858;-87
2022/08/23 01:34:26;;;;;;;;;;;27.40;55.30;;;;;;840428;23;767;-84
2022/08/23 01:34:47;;;;;;;;;;;27.50;56.60;;;;;;840522;23;968;-85
2022/08/23 01:35:08;;;;;;;;;;;;;;;;;;842694;23;1067;-86
2022/08/23 01:35:40;;;;;;;;;;;27.50;57.30;;;;;;848400;23;1442;-83
2022/08/23 01:36:01;;;;;;;;;;;;;;;;;;848648;23;830;-84
2022/08/23 01:36:21;;;;;;;;;;;;;;;;;;848538;23;951;-86
2022/08/23 01:36:43;;;;;;;;;;;27.50;57.10;;;;;;848559;23;758;-87
2022/08/23 01:37:04;;;;;;;;;;;27.50;56.00;;;;;;848510;23;786;-86
2022/08/23 01:37:25;;;;;;;;;;;27.50;55.70;;;;;;851796;23;767;-85
2022/08/23 01:37:46;;;;;;;;;;;27.50;55.70;;;;;;852730;23;750;-84
2022/08/23 01:38:08;;;;;;;;;;;27.50;57.50;;;;;;852622;23;865;-88
2022/08/23 01:38:28;;;;;;;;;;;27.50;57.30;;;;;;852733;23;936;-86
2022/08/23 01:38:49;;;;;;;;;;;27.50;57.70;;;;;;852786;23;896;-87
2022/08/23 01:39:10;;;;;;;;;;;27.50;57.20;;;;;;852547;23;817;-87
2022/08/23 01:39:30;;;;;;;;;;;27.50;57.70;;;;;;852759;23;828;-85
2022/08/23 01:39:51;;;;;;;;;;;27.50;57.70;;;;;;852623;23;914;-86
2022/08/23 01:40:12;;;;;;;;;;;27.50;57.10;;;;;;848490;23;1331;-87
2022/08/23 01:40:34;;;;;;;;;;;27.50;56.80;;;;;;844385;23;1928;-84
2022/08/23 01:40:54;;;;;;;;;;;27.50;57.70;;;;;;844623;23;806;-85
2022/08/23 01:41:15;;;;;;;;;;;27.50;56.80;;;;;;844337;23;1070;-86
2022/08/23 01:41:39;;;;;;;;;;;27.50;57.10;;;;;;844592;23;925;-85
2022/08/23 01:41:59;;;;;;;;;;;27.50;58.60;;;;;;845856;23;763;-85
2022/08/23 01:42:20;;;;;;;;;;;27.50;58.60;;;;;;849745;23;530;-84
2022/08/23 01:42:40;;;;;;;;;;;27.50;58.50;;;;;;852843;23;774;-85
2022/08/23 01:43:01;;;;;;;;;;;27.50;59.10;;;;;;852729;23;845;-84
2022/08/23 01:43:22;;;;;;;;;;;27.50;59.00;;;;;;852739;23;889;-85
2022/08/23 01:43:42;;;;;;;;;;;27.50;57.70;;;;;;852670;23;909;-85
2022/08/23 01:44:04;;;;;;;;;;;27.50;56.80;;;;;;853402;23;747;-85
2022/08/23 01:44:25;;;;;;;;;;;27.50;57.10;;;;;;853219;23;1019;-83
2022/08/23 01:44:46;;;;;;;;;;;27.50;59.20;;;;;;853355;23;876;-83
2022/08/23 01:45:08;;;;;;;;;;;27.50;57.10;;;;;;853187;23;801;-81
2022/08/23 01:45:29;;;;;;;;;;;27.50;58.00;;;;;;853529;23;911;-82
2022/08/23 01:45:50;;;;;;;;;;;27.50;58.00;;;;;;853465;23;790;-86
2022/08/23 01:46:13;;;;;;;;;;;27.50;58.80;;;;;;853626;23;999;-84
2022/08/23 01:46:35;;;;;;;;;;;27.50;58.10;;;;;;853266;23;817;-82
2022/08/23 01:46:55;;;;;;;;;;;27.50;59.20;;;;;;853477;23;774;-82
2022/08/23 01:47:16;;;;;;;;;;;27.50;58.20;;;;;;853689;23;1382;-79
2022/08/23 01:47:37;;;;;;;;;;;;;;;;;;853658;23;1091;-83
2022/08/23 01:47:58;;;;;;;;;;;27.60;59.30;;;;;;853775;23;866;-82
2022/08/23 01:48:19;;;;;;;;;;;27.50;58.10;;;;;;853649;23;810;-83
2022/08/23 01:48:41;;;;;;;;;;;27.50;58.20;;;;;;851013;23;1220;-85
2022/08/23 01:49:03;;;;;;;;;;;27.50;57.70;;;;;;849327;23;852;-84
2022/08/23 01:49:24;;;;;;;;;;;27.50;57.60;;;;;;849022;23;902;-83
2022/08/23 01:49:50;;;;;;;;;;;27.50;57.30;;;;;;849001;23;934;-85
2022/08/23 01:50:11;;;;;;;;;;;27.50;57.50;;;;;;849584;23;595;-85
2022/08/23 01:50:32;;;;;;;;;;;27.50;58.70;;;;;;849994;23;992;-84
2022/08/23 01:50:53;;;;;;;;;;;27.50;64.20;;;;;;849922;23;854;-85
2022/08/23 01:51:15;;;;;;;;;;;27.50;65.00;;;;;;849063;23;1174;-85
2022/08/23 01:51:36;;;;;;;;;;;27.60;64.90;;;;;;850618;23;924;-84
2022/08/23 01:51:56;;;;;;;;;;;27.50;64.10;;;;;;850583;23;1016;-85
2022/08/23 01:52:18;;;;;;;;;;;27.60;64.60;;;;;;846261;23;874;-84
2022/08/23 01:52:39;;;;;;;;;;;27.60;63.60;;;;;;845972;23;1380;-85
2022/08/23 01:53:00;;;;;;;;;;;27.60;63.90;;;;;;845989;23;1331;-89
2022/08/23 01:53:20;;;;;;;;;;;27.60;61.50;;;;;;845643;23;801;-85
2022/08/23 01:53:41;;;;;;;;;;;27.60;62.60;;;;;;845815;23;953;-84
2022/08/23 01:54:02;;;;;;;;;;;27.60;63.10;;;;;;845665;23;778;-86
2022/08/23 01:54:23;;;;;;;;;;;27.60;62.30;;;;;;845614;23;1245;-85
2022/08/23 01:54:43;;;;;;;;;;;27.60;62.10;;;;;;849784;23;802;-84
2022/08/23 01:55:04;;;;;;;;;;;27.60;63.10;;;;;;848917;23;1593;-85
2022/08/23 01:55:25;;;;;;;;;;;27.60;62.10;;;;;;849018;23;1273;-84
2022/08/23 01:55:47;;;;;;;;;;;27.60;62.50;;;;;;849106;23;743;-85
2022/08/23 01:56:08;;;;;;;;;;;27.60;61.20;;;;;;845618;23;1291;-86
2022/08/23 01:56:29;;;;;;;;;;;27.60;61.30;;;;;;844748;23;1197;-87
2022/08/23 01:56:49;;;;;;;;;;;27.60;61.00;;;;;;844812;23;790;-84
2022/08/23 01:57:10;;;;;;;;;;;27.60;61.60;;;;;;845565;23;866;-84
2022/08/23 01:57:31;;;;;;;;;;;27.60;62.00;;;;;;848928;23;858;-85
2022/08/23 01:57:56;;;;;;;;;;;27.60;61.90;;;;;;849670;23;747;-84
2022/08/23 01:58:17;;;;;;;;;;;27.60;60.30;;;;;;854729;23;778;-84
2022/08/23 01:58:37;;;;;;;;;;;27.60;59.40;;;;;;852865;23;1187;-84
2022/08/23 01:58:58;;;;;;;;;;;27.50;59.30;;;;;;852929;23;475;-83
2022/08/23 01:59:19;;;;;;;;;;;27.50;60.10;;;;;;853051;23;770;-84
2022/08/23 01:59:41;;;;;;;;;;;27.60;59.50;;;;;;853023;23;873;-84
2022/08/23 02:00:05;;;;;;;;;;;27.50;58.80;;;;;;853058;23;861;-83
2022/08/23 02:00:29;;;;;;;;;;;27.50;58.30;;;;;;854401;23;1273;-84
2022/08/23 02:00:49;;;;;;;;;;;27.50;57.80;;;;;;857315;23;845;-81
2022/08/23 02:01:10;;;;;;;;;;;27.50;57.10;;;;;;857254;23;885;-82
2022/08/23 02:01:31;;;;;;;;;;;27.50;57.90;;;;;;857408;23;941;-81
2022/08/23 02:01:53;;;;;;;;;;;29.80;58.90;;;;;;857397;23;785;-81
2022/08/23 02:02:14;;;;;;;;;;;27.50;57.50;;;;;;852310;23;1374;-83
2022/08/23 02:02:36;;;;;;;;;;;27.50;57.50;;;;;;852985;23;798;-82
2022/08/23 02:02:56;;;;;;;;;;;27.50;57.30;;;;;;853041;23;825;-82
2022/08/23 02:03:17;;;;;;;;;;;27.50;57.30;;;;;;852975;23;909;-82
2022/08/23 02:03:38;;;;;;;;;;;27.50;57.60;;;;;;852814;23;926;-81
2022/08/23 02:03:58;;;;;;;;;;;27.50;57.30;;;;;;853871;23;825;-82
2022/08/23 02:04:21;;;;;;;;;;;27.50;57.10;;;;;;857338;23;766;-82
2022/08/23 02:04:41;;;;;;;;;;;27.50;56.60;;;;;;857363;23;746;-84
2022/08/23 02:05:03;;;;;;;;;;;27.50;57.70;;;;;;857381;23;865;-84
2022/08/23 02:05:25;;;;;;;;;;;27.50;56.30;;;;;;857488;23;806;-82
2022/08/23 02:05:45;;;;;;;;;;;27.50;56.10;;;;;;857216;23;750;-84
2022/08/23 02:06:06;;;;;;;;;;;27.50;55.90;;;;;;857385;23;742;-83
2022/08/23 02:06:26;;;;;;;;;;;27.50;56.40;;;;;;857326;23;786;-84
2022/08/23 02:06:47;;;;;;;;;;;27.50;56.80;;;;;;857350;23;873;-82
2022/08/23 02:07:08;;;;;;;;;;;27.40;57.30;;;;;;857449;23;774;-82
2022/08/23 02:07:28;;;;;;;;;;;27.40;57.80;;;;;;857273;23;830;-81
2022/08/23 02:07:49;;;;;;;;;;;27.40;56.80;;;;;;857373;23;908;-82
2022/08/23 02:09:02;;;;;;;;;;;27.50;57.50;;;;;;857399;23;605;-80
2022/08/23 02:09:22;;;;;;;;;;;27.50;56.10;;;;;;852868;23;1292;-83
2022/08/23 02:09:43;;;;;;;;;;;27.40;56.30;;;;;;852762;23;1029;-82
2022/08/23 02:10:05;;;;;;;;;;;27.40;56.30;;;;;;852996;23;786;-82
2022/08/23 02:10:25;;;;;;;;;;;27.40;56.80;;;;;;848753;23;1330;-82
2022/08/23 02:10:46;;;;;;;;;;;27.40;55.60;;;;;;848855;23;806;-80
2022/08/23 02:11:08;;;;;;;;;;;27.40;55.60;;;;;;848999;23;1390;-81
2022/08/23 02:11:36;;;;;;;;;;;27.40;55.60;;;;;;853004;23;793;-83
2022/08/23 02:11:57;;;;;;;;;;;27.40;55.80;;;;;;852980;23;779;-83
2022/08/23 02:12:17;;;;;;;;;;;27.40;56.10;;;;;;855327;23;964;-86
2022/08/23 02:12:38;;;;;;;;;;;27.40;55.80;;;;;;857249;23;1222;-83
2022/08/23 02:12:58;;;;;;;;;;;27.40;55.80;;;;;;857351;23;529;-81
2022/08/23 02:13:19;;;;;;;;;;;27.40;56.00;;;;;;852359;23;1330;-84
2022/08/23 02:13:41;;;;;;;;;;;27.40;56.20;;;;;;852923;23;829;-86
2022/08/23 02:14:04;;;;;;;;;;;28.70;57.10;;;;;;852958;23;794;-81
2022/08/23 02:14:25;;;;;;;;;;;27.40;56.60;;;;;;853035;23;829;-82
2022/08/23 02:14:47;;;;;;;;;;;27.40;56.30;;;;;;852968;23;943;-83
2022/08/23 02:15:08;;;;;;;;;;;27.40;56.00;;;;;;854622;23;1055;-83
2022/08/23 02:15:28;;;;;;;;;;;27.40;56.50;;;;;;857287;23;1143;-82
2022/08/23 02:15:50;;;;;;;;;;;27.30;56.10;;;;;;857238;23;826;-83
2022/08/23 02:16:10;;;;;;;;;;;27.40;55.90;;;;;;857441;23;845;-82
2022/08/23 02:16:33;;;;;;;;;;;27.40;55.80;;;;;;857339;23;861;-81
2022/08/23 02:16:54;;;;;;;;;;;27.40;55.80;;;;;;857182;23;815;-82
2022/08/23 02:17:15;;;;;;;;;;;27.30;55.70;;;;;;857457;23;798;-83
2022/08/23 02:17:35;;;;;;;;;;;27.30;55.70;;;;;;857252;23;825;-83
2022/08/23 02:17:56;;;;;;;;;;;27.30;55.60;;;;;;857297;23;762;-82
2022/08/23 02:18:20;;;;;;;;;;;27.30;55.80;;;;;;857175;23;1407;-84
2022/08/23 02:18:40;;;;;;;;;;;27.30;55.70;;;;;;857355;23;781;-83
2022/08/23 02:19:03;;;;;;;;;;;27.30;55.70;;;;;;857306;23;845;-82
2022/08/23 02:19:24;;;;;;;;;;;27.30;55.60;;;;;;857348;23;782;-83
2022/08/23 02:19:44;;;;;;;;;;;27.40;55.80;;;;;;852710;23;1186;-82
2022/08/23 02:20:05;;;;;;;;;;;27.30;56.10;;;;;;853068;23;782;-83
2022/08/23 02:20:26;;;;;;;;;;;27.30;55.90;;;;;;853089;23;778;-82
2022/08/23 02:20:48;;;;;;;;;;;27.30;56.10;;;;;;852796;23;1896;-83
2022/08/23 02:21:09;;;;;;;;;;;;;;;;;;853048;23;886;-82
2022/08/23 02:21:30;;;;;;;;;;;27.30;56.50;;;;;;852900;23;1310;-85